Time;durP1;ratioP1;P1;durP2;ratioP2;P2;SDS_P1;SDS_P2;PMS_P1;PMS_P2;Temp;Humidity;BMP_temperature;BMP_pressure;BME280_temperature;BME280_humidity;BME280_pressure;Samples;Min_cycle;Max_cycle;Signal;HPM_P1;HPM_P2
2023/11/04 00:01:16;;;;;;;0.00;0.00;;;;;;;5.57;100.00;97122.41;4931290;28;20032;-78
2023/11/04 00:03:42;;;;;;;0.00;0.00;;;;;;;5.59;100.00;97120.19;4919292;28;20098;-78
2023/11/04 00:06:08;;;;;;;0.00;0.00;;;;;;;5.67;100.00;97119.41;4939897;28;20374;-78
2023/11/04 00:08:33;;;;;;;0.00;0.00;;;;;;;5.65;100.00;97101.84;4942954;28;20027;-78
2023/11/04 00:10:59;;;;;;;0.00;0.00;;;;;;;5.67;100.00;97099.66;4923029;29;20039;-78
2023/11/04 00:13:24;;;;;;;0.00;0.00;;;;;;;5.57;100.00;97089.88;4929579;28;21214;-77
2023/11/04 00:15:50;;;;;;;0.00;0.00;;;;;;;5.62;100.00;97103.28;4931868;28;20041;-77
2023/11/04 00:18:15;;;;;;;0.00;0.00;;;;;;;5.57;100.00;97093.38;4957674;28;20031;-77
2023/11/04 00:20:41;;;;;;;0.00;0.00;;;;;;;5.55;100.00;97086.72;4917574;28;20101;-76
2023/11/04 00:23:06;;;;;;;0.00;0.00;;;;;;;5.43;100.00;97073.72;4910715;28;20027;-77
2023/11/04 00:25:32;;;;;;;0.00;0.00;;;;;;;5.31;100.00;97058.06;4925108;28;20102;-76
2023/11/04 00:27:57;;;;;;;0.00;0.00;;;;;;;5.25;100.00;97062.03;4915598;28;20050;-77
2023/11/04 00:30:23;;;;;;;0.00;0.00;;;;;;;5.12;100.00;97061.03;4930938;28;20478;-77
2023/11/04 00:32:48;;;;;;;0.00;0.00;;;;;;;5.01;100.00;97046.19;4942193;28;20027;-77
2023/11/04 00:35:14;;;;;;;0.00;0.00;;;;;;;4.93;100.00;97028.00;4934201;28;20039;-77
2023/11/04 00:37:40;;;;;;;0.00;0.00;;;;;;;4.96;100.00;97032.78;4936511;28;20382;-77
2023/11/04 00:40:06;;;;;;;0.00;0.00;;;;;;;4.88;100.00;97023.50;4935503;28;20059;-77
2023/11/04 00:42:32;;;;;;;0.00;0.00;;;;;;;4.77;100.00;97008.66;4925559;28;20479;-77
2023/11/04 00:44:58;;;;;;;0.00;0.00;;;;;;;4.70;100.00;97009.91;4929595;28;20039;-77
2023/11/04 00:47:23;;;;;;;0.00;0.00;;;;;;;4.65;100.00;97001.91;4925046;28;20057;-76
2023/11/04 00:49:48;;;;;;;0.00;0.00;;;;;;;4.62;100.00;97005.22;4917058;28;20505;-76
2023/11/04 00:52:14;;;;;;;0.00;0.00;;;;;;;4.61;100.00;96997.41;4933548;28;20473;-78
2023/11/04 00:54:39;;;;;;;0.00;0.00;;;;;;;4.58;100.00;97001.53;4908885;28;20030;-77
2023/11/04 00:57:05;;;;;;;0.00;0.00;;;;;;;4.57;100.00;96997.25;4934162;28;20066;-77
2023/11/04 00:59:30;;;;;;;0.00;0.00;;;;;;;4.50;100.00;96989.56;4948882;28;20070;-77
2023/11/04 01:01:56;;;;;;;0.00;0.00;;;;;;;4.50;100.00;96984.16;4955734;28;20023;-77
2023/11/04 01:04:22;;;;;;;0.00;0.00;;;;;;;4.42;100.00;96970.59;4949607;28;20039;-76
2023/11/04 01:06:47;;;;;;;0.10;0.10;;;;;;;4.42;100.00;96959.75;4955682;28;20039;-77
2023/11/04 01:09:13;;;;;;;0.00;0.00;;;;;;;4.39;100.00;96950.34;4938842;28;20041;-76
2023/11/04 01:11:39;;;;;;;0.00;0.00;;;;;;;4.37;100.00;96942.56;4933562;28;20131;-77
2023/11/04 01:14:04;;;;;;;0.00;0.00;;;;;;;4.37;100.00;96931.72;4950072;28;20023;-76
2023/11/04 01:16:30;;;;;;;0.00;0.00;;;;;;;4.46;100.00;96923.66;4933799;28;20035;-76
2023/11/04 01:18:55;;;;;;;0.00;0.00;;;;;;;4.57;100.00;96924.19;4933801;28;20073;-77
2023/11/04 01:21:21;;;;;;;0.00;0.00;;;;;;;4.64;100.00;96897.44;4964870;28;20058;-77
2023/11/04 01:23:47;;;;;;;0.00;0.00;;;;;;;4.79;100.00;96903.53;4912934;28;20117;-77
2023/11/04 01:26:13;;;;;;;0.00;0.00;;;;;;;4.93;100.00;96914.25;4934519;29;20037;-77
2023/11/04 01:28:38;;;;;;;0.00;0.00;;;;;;;5.03;100.00;96909.34;4935006;28;20114;-76
2023/11/04 01:31:04;;;;;;;0.10;0.10;;;;;;;5.14;100.00;96907.16;4945041;28;20073;-78
2023/11/04 01:33:29;;;;;;;0.00;0.00;;;;;;;5.13;100.00;96880.38;4956726;28;20066;-76
2023/11/04 01:35:55;;;;;;;0.00;0.00;;;;;;;5.12;100.00;96882.28;4908374;28;20461;-77
2023/11/04 01:38:20;;;;;;;0.10;0.10;;;;;;;5.12;100.00;96867.94;4951693;28;20057;-76
2023/11/04 01:40:54;;;;;;;0.00;0.00;;;;;;;5.15;100.00;96880.84;4924194;28;20059;-77
2023/11/04 01:43:27;;;;;;;0.00;0.00;;;;;;;5.10;100.00;96875.59;4936134;28;20034;-76
2023/11/04 01:46:17;;;;;;;0.00;0.00;;;;;;;5.01;100.00;96876.38;4943027;28;20045;-76
2023/11/04 01:48:44;;;;;;;0.00;0.00;;;;;;;4.91;100.00;96857.72;4949786;28;20030;-77
2023/11/04 01:51:10;;;;;;;0.00;0.00;;;;;;;4.92;100.00;96858.50;4941327;28;20031;-77
2023/11/04 01:53:38;;;;;;;0.00;0.00;;;;;;;4.90;100.00;96842.59;4929634;29;20497;-78
2023/11/04 01:56:07;;;;;;;0.00;0.00;;;;;;;4.87;100.00;96819.63;4940482;28;20446;-77
2023/11/04 01:58:36;;;;;;;0.10;0.10;;;;;;;4.93;100.00;96823.00;4932357;28;20019;-76
2023/11/04 02:01:03;;;;;;;0.00;0.00;;;;;;;4.96;100.00;96811.53;4948225;28;20023;-76
2023/11/04 02:03:28;;;;;;;0.10;0.10;;;;;;;4.95;100.00;96809.97;4942012;28;20037;-77
2023/11/04 02:05:54;;;;;;;0.00;0.00;;;;;;;4.90;100.00;96793.84;4932769;28;20501;-77
2023/11/04 02:08:20;;;;;;;0.00;0.00;;;;;;;4.80;100.00;96776.00;4925917;28;20124;-77
2023/11/04 02:10:46;;;;;;;0.10;0.10;;;;;;;4.80;100.00;96764.38;4929456;28;20031;-77
2023/11/04 02:13:12;;;;;;;0.00;0.00;;;;;;;4.74;100.00;96752.13;4929767;28;20050;-76
2023/11/04 02:15:40;;;;;;;0.00;0.00;;;;;;;4.75;100.00;96742.91;4911101;28;20061;-78
2023/11/04 02:18:05;;;;;;;0.00;0.00;;;;;;;4.77;100.00;96727.13;4942689;28;20037;-77
2023/11/04 02:20:35;;;;;;;0.00;0.00;;;;;;;4.70;100.00;96723.00;4955474;28;20040;-77
2023/11/04 02:23:01;;;;;;;0.00;0.00;;;;;;;4.64;100.00;96721.53;4933068;28;20031;-76
2023/11/04 02:25:34;;;;;;;0.00;0.00;;;;;;;4.61;100.00;96718.69;4938039;28;20589;-77
2023/11/04 02:28:00;;;;;;;0.00;0.00;;;;;;;4.60;100.00;96717.91;4932704;28;20023;-76
2023/11/04 02:30:26;;;;;;;0.00;0.00;;;;;;;4.59;100.00;96702.75;4950312;28;20027;-77
2023/11/04 02:32:51;;;;;;;0.00;0.00;;;;;;;4.60;100.00;96693.53;4936191;28;20110;-77
2023/11/04 02:35:19;;;;;;;0.00;0.00;;;;;;;4.53;100.00;96668.88;4958443;28;20054;-77
2023/11/04 02:37:45;;;;;;;0.00;0.00;;;;;;;4.60;100.00;96671.91;4923308;28;20024;-77
2023/11/04 02:40:11;;;;;;;0.00;0.00;;;;;;;4.62;100.00;96679.69;4921947;29;20057;-76
2023/11/04 02:42:37;;;;;;;0.00;0.00;;;;;;;4.68;100.00;96676.50;4956935;28;20039;-77
2023/11/04 02:45:06;;;;;;;0.00;0.00;;;;;;;4.80;100.00;96656.09;4948996;28;20469;-76
2023/11/04 02:47:32;;;;;;;0.00;0.00;;;;;;;4.81;100.00;96625.22;4940003;28;20039;-75
2023/11/04 02:49:57;;;;;;;0.00;0.00;;;;;;;4.70;100.00;96598.50;4952916;28;20045;-77
2023/11/04 02:52:23;;;;;;;0.00;0.00;;;;;;;4.71;100.00;96594.66;4938367;28;20058;-76
2023/11/04 02:54:48;;;;;;;0.00;0.00;;;;;;;4.75;100.00;96594.81;4931128;28;20027;-77
2023/11/04 02:57:14;;;;;;;0.00;0.00;;;;;;;4.69;100.00;96579.88;4927359;28;20057;-76
2023/11/04 02:59:40;;;;;;;0.00;0.00;;;;;;;4.60;100.00;96577.19;4937044;28;20030;-77
2023/11/04 03:02:05;;;;;;;0.00;0.00;;;;;;;4.68;100.00;96583.69;4952159;28;20030;-76
2023/11/04 03:04:31;;;;;;;0.00;0.00;;;;;;;4.66;100.00;96565.06;4944349;28;20096;-78
2023/11/04 03:06:57;;;;;;;0.00;0.00;;;;;;;4.92;100.00;96566.94;4953347;28;20042;-77
2023/11/04 03:09:22;;;;;;;0.00;0.00;;;;;;;5.10;100.00;96564.16;4945377;28;20030;-76
2023/11/04 03:11:48;;;;;;;0.10;0.10;;;;;;;5.20;100.00;96544.84;4968711;28;20073;-77
2023/11/04 03:14:14;;;;;;;0.00;0.00;;;;;;;5.17;100.00;96534.63;4957442;28;20071;-76
2023/11/04 03:16:39;;;;;;;0.00;0.00;;;;;;;5.18;100.00;96541.63;4954536;28;20027;-75
2023/11/04 03:19:05;;;;;;;0.00;0.00;;;;;;;5.24;100.00;96529.50;4941185;28;20027;-77
2023/11/04 03:21:30;;;;;;;0.00;0.00;;;;;;;5.30;100.00;96511.97;4948446;28;20042;-76
2023/11/04 03:23:57;;;;;;;0.00;0.00;;;;;;;5.45;100.00;96493.53;4932177;28;20035;-76
2023/11/04 03:26:22;;;;;;;0.00;0.00;;;;;;;5.57;100.00;96488.19;4933697;28;20114;-76
2023/11/04 03:28:47;;;;;;;0.00;0.00;;;;;;;5.73;100.00;96497.31;4941794;28;20166;-76
2023/11/04 03:31:13;;;;;;;0.00;0.00;;;;;;;5.82;100.00;96470.16;4944463;28;20397;-76
2023/11/04 03:33:38;;;;;;;0.00;0.00;;;;;;;5.88;100.00;96466.09;4926185;28;20030;-77
2023/11/04 03:36:04;;;;;;;0.00;0.00;;;;;;;5.86;100.00;96462.16;4958374;28;20039;-76
2023/11/04 03:38:30;;;;;;;0.00;0.00;;;;;;;5.73;100.00;96453.94;4949187;28;20114;-77
2023/11/04 03:40:55;;;;;;;0.00;0.00;;;;;;;5.62;100.00;96447.34;4958181;28;20161;-77
2023/11/04 03:43:21;;;;;;;0.10;0.10;;;;;;;5.55;100.00;96433.53;4958562;28;20042;-76
2023/11/04 03:45:46;;;;;;;0.10;0.10;;;;;;;5.55;100.00;96426.19;4948095;28;20046;-76
2023/11/04 03:48:12;;;;;;;0.00;0.00;;;;;;;5.53;100.00;96404.03;4948139;28;20034;-77
2023/11/04 03:50:38;;;;;;;0.00;0.00;;;;;;;5.53;100.00;96387.78;4919331;28;20485;-77
2023/11/04 03:53:03;;;;;;;0.00;0.00;;;;;;;5.57;100.00;96374.38;4967130;28;20093;-77
2023/11/04 03:55:29;;;;;;;0.00;0.00;;;;;;;5.66;100.00;96358.81;4918376;28;20381;-77
2023/11/04 03:57:54;;;;;;;0.10;0.10;;;;;;;5.73;100.00;96350.94;4931688;29;20033;-77
2023/11/04 04:00:20;;;;;;;0.00;0.00;;;;;;;5.91;100.00;96345.34;4944234;28;20030;-77
2023/11/04 04:02:45;;;;;;;0.00;0.00;;;;;;;6.02;100.00;96335.69;4957010;28;20496;-77
2023/11/04 04:05:11;;;;;;;0.00;0.00;;;;;;;6.14;100.00;96331.41;4943671;28;20038;-77
2023/11/04 04:07:36;;;;;;;0.00;0.00;;;;;;;6.27;100.00;96335.72;4939178;28;20119;-77
2023/11/04 04:10:02;;;;;;;0.00;0.00;;;;;;;6.42;100.00;96343.19;4950194;28;20035;-77
2023/11/04 04:12:27;;;;;;;0.00;0.00;;;;;;;6.58;100.00;96339.81;4920453;28;20135;-77
2023/11/04 04:14:52;;;;;;;0.00;0.00;;;;;;;6.66;100.00;96330.78;4945541;28;20367;-76
2023/11/04 04:17:18;;;;;;;0.00;0.00;;;;;;;6.67;100.00;96318.75;4953666;28;20468;-77
2023/11/04 04:19:44;;;;;;;0.00;0.00;;;;;;;6.67;100.00;96297.03;4930195;28;20082;-77
2023/11/04 04:22:09;;;;;;;0.00;0.00;;;;;;;6.77;100.00;96299.28;4942893;28;20074;-76
2023/11/04 04:24:38;;;;;;;0.00;0.00;;;;;;;6.82;100.00;96301.00;4946252;28;20109;-77
2023/11/04 04:27:04;;;;;;;0.08;0.08;;;;;;;6.79;100.00;96291.59;4947455;28;20114;-78
2023/11/04 04:29:30;;;;;;;0.00;0.00;;;;;;;6.88;100.00;96287.94;4963255;28;20030;-77
2023/11/04 04:31:56;;;;;;;0.00;0.00;;;;;;;6.90;100.00;96281.06;4954464;28;20035;-78
2023/11/04 04:34:22;;;;;;;0.00;0.00;;;;;;;6.95;100.00;96271.88;4947439;28;20500;-77
2023/11/04 04:36:47;;;;;;;0.00;0.00;;;;;;;7.02;100.00;96263.16;4942621;28;20031;-78
2023/11/04 04:39:13;;;;;;;0.00;0.00;;;;;;;7.07;100.00;96249.34;4955214;28;20039;-77
2023/11/04 04:41:38;;;;;;;0.00;0.00;;;;;;;7.16;100.00;96247.25;4953744;28;20054;-78
2023/11/04 04:44:03;;;;;;;0.08;0.08;;;;;;;7.19;100.00;96238.41;4940067;28;20037;-76
2023/11/04 04:46:29;;;;;;;0.00;0.00;;;;;;;7.13;100.00;96218.06;4940575;28;20034;-78
2023/11/04 04:48:55;;;;;;;0.00;0.00;;;;;;;7.16;100.00;96218.16;4924776;28;20030;-77
2023/11/04 04:51:21;;;;;;;0.00;0.00;;;;;;;7.19;100.00;96213.19;4940850;28;20035;-77
2023/11/04 04:53:47;;;;;;;0.00;0.00;;;;;;;7.16;100.00;96212.72;4929606;28;20697;-77
2023/11/04 04:56:15;;;;;;;0.00;0.00;;;;;;;7.15;100.00;96194.84;4913152;28;20737;-78
2023/11/04 04:58:41;;;;;;;0.00;0.00;;;;;;;7.23;100.00;96192.31;4961079;28;20073;-78
2023/11/04 05:01:17;;;;;;;0.00;0.00;;;;;;;7.21;100.00;96170.91;4925149;28;20027;-78
2023/11/04 05:03:42;;;;;;;0.00;0.00;;;;;;;7.18;100.00;96143.66;4945790;28;20435;-77
2023/11/04 05:06:08;;;;;;;0.10;0.10;;;;;;;7.37;100.00;96157.34;4930658;28;20117;-76
2023/11/04 05:08:33;;;;;;;0.10;0.10;;;;;;;7.41;100.00;96133.78;4941443;28;20039;-77
2023/11/04 05:10:58;;;;;;;0.00;0.00;;;;;;;7.48;100.00;96123.09;4924907;28;20498;-76
2023/11/04 05:13:28;;;;;;;0.00;0.00;;;;;;;7.55;100.00;96118.97;4905333;28;20090;-77
2023/11/04 05:15:53;;;;;;;0.10;0.10;;;;;;;7.60;100.00;96143.94;4938205;28;20481;-76
2023/11/04 05:18:19;;;;;;;0.00;0.00;;;;;;;7.57;100.00;96135.72;4962919;28;20114;-77
2023/11/04 05:20:44;;;;;;;0.00;0.00;;;;;;;7.46;100.00;96160.72;4927992;28;20049;-76
2023/11/04 05:23:09;;;;;;;0.00;0.00;;;;;;;7.32;100.00;96141.31;4926529;29;20541;-77
2023/11/04 05:25:35;;;;;;;0.00;0.00;;;;;;;7.19;100.00;96124.31;4924246;28;20114;-77
2023/11/04 05:28:02;;;;;;;0.00;0.00;;;;;;;7.16;100.00;96125.78;4926259;28;20046;-79
2023/11/04 05:30:27;;;;;;;0.00;0.00;;;;;;;7.14;100.00;96122.63;4946140;28;20030;-79
2023/11/04 05:32:52;;;;;;;0.00;0.00;;;;;;;7.05;100.00;96145.66;4945431;28;20028;-78
2023/11/04 05:35:18;;;;;;;0.00;0.00;;;;;;;6.87;100.00;96118.81;4931560;28;20046;-77
2023/11/04 05:37:43;;;;;;;0.08;0.08;;;;;;;6.63;100.00;96103.44;4911517;28;20062;-76
2023/11/04 05:40:09;;;;;;;0.00;0.00;;;;;;;6.54;100.00;96084.59;4953910;28;20031;-77
2023/11/04 05:42:35;;;;;;;0.00;0.00;;;;;;;6.50;100.00;96091.03;4941477;28;20053;-77
2023/11/04 05:45:01;;;;;;;0.00;0.00;;;;;;;6.43;100.00;96073.41;4932377;28;20058;-76
2023/11/04 05:47:26;;;;;;;0.08;0.08;;;;;;;6.40;100.00;96067.91;4947484;28;20034;-77
2023/11/04 05:49:52;;;;;;;0.00;0.00;;;;;;;6.33;100.00;96052.19;4916318;28;20500;-77
2023/11/04 05:52:17;;;;;;;0.00;0.00;;;;;;;6.29;100.00;96041.25;4943196;28;20062;-76
2023/11/04 05:54:43;;;;;;;0.00;0.00;;;;;;;6.33;100.00;96030.50;4942642;28;20437;-75
2023/11/04 05:57:08;;;;;;;0.00;0.00;;;;;;;6.29;100.00;96019.56;4903687;28;20031;-77
2023/11/04 05:59:33;;;;;;;0.00;0.00;;;;;;;6.35;100.00;96008.44;4917253;28;20764;-75
2023/11/04 06:01:59;;;;;;;0.00;0.00;;;;;;;6.36;100.00;95985.59;4934389;28;20027;-77
2023/11/04 06:04:24;;;;;;;0.00;0.00;;;;;;;6.35;100.00;95990.25;4930052;28;20050;-76
2023/11/04 06:06:50;;;;;;;0.00;0.00;;;;;;;6.31;100.00;95962.25;4911810;28;20030;-77
2023/11/04 06:09:16;;;;;;;0.00;0.00;;;;;;;6.39;100.00;95961.28;4914442;28;20038;-76
2023/11/04 06:11:41;;;;;;;0.00;0.00;;;;;;;6.38;100.00;95948.88;4967868;28;20049;-76
2023/11/04 06:14:08;;;;;;;0.00;0.00;;;;;;;6.42;100.00;95929.94;4918628;28;20035;-76
2023/11/04 06:16:34;;;;;;;0.05;0.05;;;;;;;6.47;100.00;95913.41;4960584;28;20046;-76
2023/11/04 06:19:02;;;;;;;0.00;0.00;;;;;;;6.49;100.00;95907.66;4949224;28;20039;-76
2023/11/04 06:21:28;;;;;;;0.00;0.00;;;;;;;6.50;100.00;95904.59;4940406;28;20142;-76
2023/11/04 06:23:53;;;;;;;0.00;0.00;;;;;;;6.49;100.00;95875.84;4941872;28;20460;-76
2023/11/04 06:26:22;;;;;;;0.00;0.00;;;;;;;6.51;100.00;95848.38;4944716;28;20027;-76
2023/11/04 06:28:48;;;;;;;0.00;0.00;;;;;;;6.54;100.00;95834.09;4937345;28;20031;-76
2023/11/04 06:31:15;;;;;;;0.00;0.00;;;;;;;6.51;100.00;95818.50;4943251;28;20078;-77
2023/11/04 06:33:40;;;;;;;0.00;0.00;;;;;;;6.60;100.00;95806.34;4945488;28;20034;-76
2023/11/04 06:36:07;;;;;;;0.00;0.00;;;;;;;6.60;100.00;95794.69;4940885;28;20038;-76
2023/11/04 06:38:32;;;;;;;0.00;0.00;;;;;;;6.60;100.00;95783.81;4942999;28;20027;-76
2023/11/04 06:40:58;;;;;;;0.00;0.00;;;;;;;6.57;100.00;95765.53;4917256;28;20030;-76
2023/11/04 06:43:23;;;;;;;0.00;0.00;;;;;;;6.54;100.00;95758.91;4948227;28;20429;-76
2023/11/04 06:45:48;;;;;;;0.00;0.00;;;;;;;6.59;100.00;95741.56;4924185;28;20350;-75
2023/11/04 06:48:14;;;;;;;0.00;0.00;;;;;;;6.59;100.00;95728.00;4958951;28;20534;-75
2023/11/04 06:50:39;;;;;;;0.00;0.00;;;;;;;6.64;100.00;95722.28;4947648;28;20027;-77
2023/11/04 06:53:05;;;;;;;0.10;0.10;;;;;;;6.71;100.00;95725.13;4919597;28;20525;-77
2023/11/04 06:55:32;;;;;;;0.00;0.00;;;;;;;6.70;100.00;95704.59;4961675;28;20045;-77
2023/11/04 06:57:58;;;;;;;0.00;0.00;;;;;;;6.71;100.00;95681.72;4925679;28;20125;-76
2023/11/04 07:00:24;;;;;;;0.00;0.00;;;;;;;6.77;100.00;95680.28;4937584;28;20138;-76
2023/11/04 07:02:49;;;;;;;0.00;0.00;;;;;;;6.73;100.00;95641.44;4925388;28;20030;-77
2023/11/04 07:05:15;;;;;;;0.00;0.00;;;;;;;6.77;100.00;95636.06;4934918;28;20457;-77
2023/11/04 07:07:41;;;;;;;0.00;0.00;;;;;;;6.82;100.00;95635.78;4930559;28;20027;-77
2023/11/04 07:10:09;;;;;;;0.00;0.00;;;;;;;6.82;100.00;95644.72;4955986;28;20412;-76
2023/11/04 07:12:35;;;;;;;0.10;0.10;;;;;;;6.82;100.00;95628.41;4916738;28;20134;-76
2023/11/04 07:15:01;;;;;;;0.00;0.00;;;;;;;6.84;100.00;95625.34;4936939;28;20166;-76
2023/11/04 07:17:27;;;;;;;0.00;0.00;;;;;;;6.89;100.00;95616.13;4935698;28;20103;-77
2023/11/04 07:19:55;;;;;;;0.00;0.00;;;;;;;6.88;100.00;95601.75;4917226;28;20081;-77
2023/11/04 07:22:21;;;;;;;0.00;0.00;;;;;;;6.94;100.00;95597.59;4936596;28;20023;-76
2023/11/04 07:24:46;;;;;;;0.00;0.00;;;;;;;6.99;100.00;95594.59;4912485;28;20065;-76
2023/11/04 07:27:12;;;;;;;0.00;0.00;;;;;;;7.03;100.00;95578.34;4919129;28;20051;-76
2023/11/04 07:29:38;;;;;;;0.00;0.00;;;;;;;6.99;100.00;95551.16;4913060;28;20035;-76
2023/11/04 07:32:04;;;;;;;0.00;0.00;;;;;;;7.07;100.00;95540.41;4935476;28;20062;-77
2023/11/04 07:34:31;;;;;;;0.00;0.00;;;;;;;7.12;100.00;95540.88;4911322;28;20438;-77
2023/11/04 07:36:57;;;;;;;0.00;0.00;;;;;;;7.19;100.00;95531.28;4893502;28;20067;-76
2023/11/04 07:39:23;;;;;;;0.00;0.00;;;;;;;7.24;100.00;95520.09;4905124;29;20042;-76
2023/11/04 07:41:49;;;;;;;0.00;0.00;;;;;;;7.34;100.00;95512.13;4897463;28;20015;-78
2023/11/04 07:44:15;;;;;;;0.00;0.00;;;;;;;7.33;100.00;95507.84;4950763;28;20030;-76
2023/11/04 07:46:40;;;;;;;0.00;0.00;;;;;;;7.40;100.00;95465.63;4921203;28;20027;-77
2023/11/04 07:49:06;;;;;;;0.00;0.00;;;;;;;7.49;100.00;95480.53;4917994;28;20113;-77
2023/11/04 07:51:31;;;;;;;0.00;0.00;;;;;;;7.58;100.00;95479.44;4933751;28;20028;-79
2023/11/04 07:53:57;;;;;;;0.00;0.00;;;;;;;7.59;100.00;95456.56;4898258;28;20481;-78
2023/11/04 07:56:22;;;;;;;0.00;0.00;;;;;;;7.63;100.00;95444.59;4904066;29;20023;-78
2023/11/04 07:58:48;;;;;;;0.00;0.00;;;;;;;7.73;100.00;95451.31;4943973;28;20446;-78
2023/11/04 08:01:19;;;;;;;0.00;0.00;;;;;;;7.72;100.00;95428.00;4917692;29;20135;-78
2023/11/04 08:03:45;;;;;;;0.00;0.00;;;;;;;7.76;100.00;95434.25;4918784;28;20026;-77
2023/11/04 08:06:12;;;;;;;0.00;0.00;;;;;;;7.83;100.00;95411.81;4904858;28;20500;-76
2023/11/04 08:08:38;;;;;;;0.00;0.00;;;;;;;7.85;100.00;95404.84;4930229;29;20039;-78
2023/11/04 08:11:04;;;;;;;0.00;0.00;;;;;;;7.91;100.00;95396.38;4946248;28;20040;-78
2023/11/04 08:13:29;;;;;;;0.00;0.00;;;;;;;7.94;100.00;95373.88;4909816;29;20039;-77
2023/11/04 08:15:55;;;;;;;0.00;0.00;;;;;;;8.07;100.00;95383.31;4893214;28;20027;-76
2023/11/04 08:18:23;;;;;;;0.00;0.00;;;;;;;8.14;100.00;95372.53;4928050;29;20577;-77
2023/11/04 08:20:48;;;;;;;0.00;0.00;;;;;;;8.15;100.00;95357.78;4924725;28;20414;-77
2023/11/04 08:23:14;;;;;;;0.00;0.00;;;;;;;8.13;100.00;95379.13;4945987;28;20027;-77
2023/11/04 08:25:40;;;;;;;0.00;0.00;;;;;;;8.20;100.00;95373.75;4892016;28;20518;-77
2023/11/04 08:28:05;;;;;;;0.00;0.00;;;;;;;8.18;100.00;95367.91;4913948;28;20471;-78
2023/11/04 08:30:31;;;;;;;0.00;0.00;;;;;;;8.14;100.00;95360.88;4928841;28;20126;-78
2023/11/04 08:32:56;;;;;;;0.00;0.00;;;;;;;8.28;100.00;95365.66;4943833;28;20019;-77
2023/11/04 08:35:22;;;;;;;0.00;0.00;;;;;;;8.44;100.00;95365.41;4930564;28;20127;-77
2023/11/04 08:37:49;;;;;;;0.00;0.00;;;;;;;8.47;100.00;95351.06;4928412;28;20074;-79
2023/11/04 08:40:15;;;;;;;0.00;0.00;;;;;;;8.65;100.00;95334.91;4910687;29;20474;-79
2023/11/04 08:42:40;;;;;;;0.00;0.00;;;;;;;8.87;100.00;95336.59;4899813;29;20107;-78
2023/11/04 08:45:11;;;;;;;0.00;0.00;;;;;;;9.06;100.00;95354.63;4935518;28;20405;-80
2023/11/04 08:47:36;;;;;;;0.00;0.00;;;;;;;8.93;100.00;95311.75;4913143;29;20035;-80
2023/11/04 08:50:05;;;;;;;0.00;0.00;;;;;;;9.08;100.00;95329.72;4925325;28;20031;-80
2023/11/04 08:52:31;;;;;;;0.00;0.00;;;;;;;9.38;100.00;95328.72;4900548;28;20153;-79
2023/11/04 08:54:56;;;;;;;0.00;0.00;;;;;;;9.78;100.00;95340.53;4913752;28;20080;-81
2023/11/04 08:57:23;;;;;;;0.00;0.00;;;;;;;10.06;100.00;95333.59;4895507;28;20038;-78
2023/11/04 08:59:48;;;;;;;0.00;0.00;;;;;;;10.21;100.00;95305.16;4914781;29;20538;-78
2023/11/04 09:02:13;;;;;;;0.00;0.00;;;;;;;11.28;100.00;95339.06;4927808;28;20028;-78
2023/11/04 09:04:39;;;;;;;0.00;0.00;;;;;;;11.67;100.00;95334.66;4911754;29;20035;-80
2023/11/04 09:07:04;;;;;;;0.00;0.00;;;;;;;12.18;100.00;95324.25;4913350;28;20028;-79
2023/11/04 09:09:30;;;;;;;0.00;0.00;;;;;;;13.42;100.00;95318.09;4931047;28;20150;-80
2023/11/04 09:11:57;;;;;;;0.00;0.00;;;;;;;14.87;100.00;95314.13;4903203;29;20494;-79
2023/11/04 09:14:23;;;;;;;0.00;0.00;;;;;;;15.57;100.00;95322.69;4929357;28;20031;-79
2023/11/04 09:16:49;;;;;;;0.00;0.00;;;;;;;16.60;100.00;95315.38;4902702;29;20030;-78
2023/11/04 09:19:15;;;;;;;0.00;0.00;;;;;;;18.29;97.32;95316.41;4909055;28;20027;-79
2023/11/04 09:21:40;;;;;;;0.00;0.00;;;;;;;18.14;87.79;95313.31;4908105;28;20039;-78
2023/11/04 09:24:06;;;;;;;0.00;0.00;;;;;;;16.60;90.08;95320.91;4900074;29;20039;-78
2023/11/04 09:26:32;;;;;;;0.10;0.10;;;;;;;15.87;95.41;95332.72;4912989;29;20029;-78
2023/11/04 09:28:58;;;;;;;0.08;0.08;;;;;;;15.60;95.99;95338.38;4914905;28;20027;-77
2023/11/04 09:31:23;;;;;;;0.00;0.00;;;;;;;15.25;97.68;95332.34;4910162;28;20035;-78
2023/11/04 09:33:49;;;;;;;0.00;0.00;;;;;;;14.87;96.55;95322.38;4909454;28;20049;-78
2023/11/04 09:36:14;;;;;;;0.00;0.00;;;;;;;14.83;98.14;95314.19;4916704;28;20459;-79
2023/11/04 09:38:42;;;;;;;0.00;0.00;;;;;;;15.66;95.67;95320.91;4896603;28;20027;-81
2023/11/04 09:41:07;;;;;;;0.00;0.00;;;;;;;16.10;90.55;95307.06;4927582;29;20091;-78
2023/11/04 09:43:33;;;;;;;0.10;0.10;;;;;;;17.97;83.39;95323.69;4892543;29;20036;-77
2023/11/04 09:46:01;;;;;;;0.00;0.00;;;;;;;20.67;71.05;95324.84;4937708;28;20106;-78
2023/11/04 09:48:28;;;;;;;0.00;0.00;;;;;;;22.48;62.05;95318.69;4925484;29;20041;-77
2023/11/04 09:50:59;;;;;;;0.00;0.00;;;;;;;21.96;59.59;95307.53;4923594;28;20118;-79
2023/11/04 09:53:42;;;;;;;0.00;0.00;;;;;;;20.28;62.52;95302.16;4918425;28;20042;-78
2023/11/04 09:56:10;;;;;;;0.00;0.00;;;;;;;22.24;59.84;95302.69;4924758;29;20410;-78
2023/11/04 09:58:37;;;;;;;0.00;0.00;;;;;;;23.87;50.37;95321.44;4910253;28;20038;-78
2023/11/04 10:01:03;;;;;;;0.00;0.00;;;;;;;24.97;49.07;95280.78;4912293;28;20032;-79
2023/11/04 10:03:29;;;;;;;0.00;0.00;;;;;;;25.75;45.49;95319.38;4893964;28;20034;-80
2023/11/04 10:05:55;;;;;;;0.00;0.00;;;;;;;26.29;42.97;95313.31;4923485;28;20055;-78
2023/11/04 10:08:20;;;;;;;0.00;0.00;;;;;;;26.94;40.42;95310.00;4918256;28;20488;-77
2023/11/04 10:10:46;;;;;;;0.00;0.00;;;;;;;28.14;39.60;95297.22;4920165;28;20445;-78
2023/11/04 10:13:11;;;;;;;0.00;0.00;;;;;;;29.42;34.30;95325.75;4922153;28;20031;-79
2023/11/04 10:15:36;;;;;;;0.00;0.00;;;;;;;29.16;34.75;95316.84;4911796;29;20039;-79
2023/11/04 10:18:04;;;;;;;0.00;0.00;;;;;;;29.34;34.39;95316.31;4935334;28;20042;-78
2023/11/04 10:20:30;;;;;;;0.00;0.00;;;;;;;27.95;34.14;95308.13;4931923;28;20133;-81
2023/11/04 10:22:56;;;;;;;0.00;0.00;;;;;;;26.45;38.02;95309.13;4924859;29;20060;-77
2023/11/04 10:25:21;;;;;;;0.00;0.00;;;;;;;26.75;36.97;95297.63;4894642;28;20039;-78
2023/11/04 10:27:46;;;;;;;0.00;0.00;;;;;;;27.57;34.97;95308.28;4937240;28;20027;-78
2023/11/04 10:30:12;;;;;;;0.00;0.00;;;;;;;28.51;33.77;95307.44;4908608;28;20118;-77
2023/11/04 10:32:39;;;;;;;0.00;0.00;;;;;;;28.57;33.83;95311.03;4901385;28;20039;-79
2023/11/04 10:35:12;;;;;;;0.00;0.00;;;;;;;28.97;32.86;95311.00;4925843;29;20047;-79
2023/11/04 10:37:38;;;;;;;0.00;0.00;;;;;;;29.31;31.21;95314.53;4918041;29;20023;-77
2023/11/04 10:40:07;;;;;;;0.00;0.00;;;;;;;29.98;30.93;95312.72;4927115;29;20027;-78
2023/11/04 10:42:40;;;;;;;0.00;0.00;;;;;;;30.41;29.81;95317.81;4912106;28;20179;-78
2023/11/04 10:45:31;;;;;;;0.00;0.00;;;;;;;29.60;30.81;95318.00;4944218;28;20027;-78
2023/11/04 10:48:05;;;;;;;0.00;0.00;;;;;;;29.67;30.90;95317.47;4929230;28;20025;-80
2023/11/04 10:50:41;;;;;;;0.00;0.00;;;;;;;30.29;30.03;95308.66;4926631;28;20473;-79
2023/11/04 10:53:12;;;;;;;0.00;0.00;;;;;;;30.27;28.84;95290.75;4937284;28;20039;-78
2023/11/04 10:55:52;;;;;;;0.00;0.00;;;;;;;27.08;31.72;95293.50;4937049;28;20067;-78
2023/11/04 10:58:23;;;;;;;0.00;0.00;;;;;;;25.52;35.64;95299.53;4943132;28;20110;-78
2023/11/04 11:00:50;;;;;;;0.00;0.00;;;;;;;26.09;35.39;95284.16;4926257;28;20107;-78
2023/11/04 11:03:17;;;;;;;0.00;0.00;;;;;;;27.09;33.99;95283.84;4933844;28;20031;-77
2023/11/04 11:05:43;;;;;;;0.00;0.00;;;;;;;27.94;32.27;95293.34;4925225;29;20046;-77
2023/11/04 11:08:09;;;;;;;0.00;0.00;;;;;;;28.65;31.71;95286.00;4940328;28;20406;-79
2023/11/04 11:10:44;;;;;;;0.00;0.00;;;;;;;29.98;29.27;95278.94;4905605;28;20292;-78
2023/11/04 11:13:13;;;;;;;0.00;0.00;;;;;;;31.07;27.06;95291.63;4942186;28;20034;-77
2023/11/04 11:15:40;;;;;;;0.00;0.00;;;;;;;30.92;26.88;95277.16;4927922;28;20035;-78
2023/11/04 11:18:06;;;;;;;0.00;0.00;;;;;;;28.31;29.13;95267.09;4954665;28;20039;-79
2023/11/04 11:20:33;;;;;;;0.00;0.00;;;;;;;26.61;31.96;95276.91;4913389;28;20047;-79
2023/11/04 11:23:03;;;;;;;0.00;0.00;;;;;;;26.68;32.09;95258.88;4947676;28;20091;-78
2023/11/04 11:25:39;;;;;;;0.00;0.00;;;;;;;27.39;30.23;95258.25;4958121;28;20022;-79
2023/11/04 11:28:21;;;;;;;0.00;0.00;;;;;;;23.76;35.97;95265.41;4947279;28;20027;-78
2023/11/04 11:30:53;;;;;;;0.00;0.00;;;;;;;23.35;38.49;95237.31;4921254;28;20069;-79